Airport View

Enter AWOS ICAO identifier for current METAR.

ex. KFNL

KOLM 210054Z 22003KT 10SM FEW035 SCT060 19/12 A3011 RMK AO2 SLP197 T01940117

21 Sep 2019 01:24

Frequency: 135.725

Phone: 360-754-0781

Other Area AWOS: KGRF - KCLS - KSHN - KTCM

TAF KOLM 202335Z 2100/2124 VRB03KT P6SM BKN050 FM210400 00000KT P6SM SCT050 FM211100 00000KT 1SM BR OVC002 FM211600 00000KT 4SM BR OVC004 FM211800 VRB03KT P6SM BKN008 FM211900 VRB03KT P6SM BKN200